Time;durP1;ratioP1;P1;durP2;ratioP2;P2;SDS_P1;SDS_P2;PMS_P1;PMS_P2;Temp;Humidity;BMP_temperature;BMP_pressure;BME280_temperature;BME280_humidity;BME280_pressure;Samples;Min_cycle;Max_cycle;Signal;HPM_P1;HPM_P2
2023/05/31 00:00:58;;;;;;;6.83;3.73;;;12.50;99.90;;;;;;5040328;28;20205;-78
2023/05/31 00:03:25;;;;;;;5.43;2.93;;;12.40;99.90;;;;;;5033450;28;20285;-78
2023/05/31 00:05:52;;;;;;;5.50;3.23;;;12.40;99.90;;;;;;5033625;28;20639;-77
2023/05/31 00:08:19;;;;;;;5.17;3.60;;;12.40;99.90;;;;;;5033731;28;20360;-77
2023/05/31 00:10:46;;;;;;;4.97;3.30;;;12.40;99.90;;;;;;5053104;28;20210;-78
2023/05/31 00:13:13;;;;;;;4.20;3.43;;;12.30;99.90;;;;;;5040686;28;20845;-77
2023/05/31 00:15:40;;;;;;;4.60;3.40;;;12.40;99.90;;;;;;5033390;28;20722;-77
2023/05/31 00:18:08;;;;;;;5.17;3.30;;;12.30;99.90;;;;;;5032761;28;20199;-77
2023/05/31 00:20:35;;;;;;;5.10;3.23;;;12.30;99.90;;;;;;5033760;28;20289;-78
2023/05/31 00:23:02;;;;;;;8.43;3.53;;;12.20;99.90;;;;;;5033422;28;20603;-78
2023/05/31 00:25:29;;;;;;;5.87;3.63;;;12.20;99.90;;;;;;5033127;28;20202;-77
2023/05/31 00:27:56;;;;;;;4.00;3.40;;;12.20;99.90;;;;;;5033404;28;20599;-77
2023/05/31 00:30:23;;;;;;;4.47;3.40;;;12.10;99.90;;;;;;5033073;28;20198;-77
2023/05/31 00:32:50;;;;;;;5.13;3.93;;;12.10;99.90;;;;;;5032290;28;20210;-77
2023/05/31 00:35:18;;;;;;;6.30;3.87;;;12.00;99.90;;;;;;5033109;28;20631;-78
2023/05/31 00:37:45;;;;;;;4.27;3.40;;;12.10;99.90;;;;;;5032832;28;20547;-76
2023/05/31 00:40:12;;;;;;;6.40;3.70;;;12.10;99.90;;;;;;5032454;28;20609;-78
2023/05/31 00:42:39;;;;;;;7.73;3.90;;;12.00;99.90;;;;;;5033006;28;20289;-77
2023/05/31 00:45:07;;;;;;;4.10;3.30;;;12.00;99.90;;;;;;5032958;28;20534;-79
2023/05/31 00:47:35;;;;;;;5.80;4.30;;;12.00;99.90;;;;;;5032397;28;20210;-78
2023/05/31 00:50:02;;;;;;;4.10;3.33;;;12.00;99.90;;;;;;5044182;28;20210;-76
2023/05/31 00:52:33;;;;;;;6.30;4.07;;;12.00;99.90;;;;;;5052955;28;20280;-78
2023/05/31 00:55:01;;;;;;;6.43;4.00;;;12.00;99.90;;;;;;5050180;28;20226;-78
2023/05/31 00:57:29;;;;;;;5.13;4.10;;;12.00;99.90;;;;;;5032927;28;20198;-77
2023/05/31 00:59:56;;;;;;;5.23;3.37;;;11.90;99.90;;;;;;5032009;28;20198;-77
2023/05/31 01:02:23;;;;;;;7.33;4.23;;;11.90;99.90;;;;;;5032904;28;20206;-76
2023/05/31 01:04:51;;;;;;;8.37;4.60;;;11.90;99.90;;;;;;5031939;28;20248;-78
2023/05/31 01:07:18;;;;;;;6.40;4.27;;;11.80;99.90;;;;;;5032344;28;20210;-77
2023/05/31 01:09:46;;;;;;;5.90;4.20;;;11.80;99.90;;;;;;5032483;28;20209;-78
2023/05/31 01:12:22;;;;;;;4.57;3.70;;;11.80;99.90;;;;;;5032421;28;20242;-76
2023/05/31 01:15:02;;;;;;;7.03;4.30;;;11.80;99.90;;;;;;5032344;28;20325;-77
2023/05/31 01:17:34;;;;;;;6.77;4.43;;;11.80;99.90;;;;;;5032723;28;20202;-77
2023/05/31 01:20:06;;;;;;;5.20;4.23;;;11.80;99.90;;;;;;5032444;28;20199;-78
2023/05/31 01:23:05;;;;;;;7.53;4.27;;;11.80;99.90;;;;;;5031877;28;20198;-78
2023/05/31 01:26:02;;;;;;;7.03;4.13;;;11.80;99.90;;;;;;5032850;28;20257;-77
2023/05/31 01:28:34;;;;;;;6.60;4.53;;;11.80;99.90;;;;;;5031759;28;20285;-78
2023/05/31 01:31:04;;;;;;;5.90;4.20;;;11.80;99.90;;;;;;5032342;28;20191;-77
2023/05/31 01:33:31;;;;;;;5.33;3.90;;;11.70;99.90;;;;;;5032015;28;20199;-77
2023/05/31 01:35:58;;;;;;;6.53;4.30;;;11.70;99.90;;;;;;5031325;28;20218;-76
2023/05/31 01:38:25;;;;;;;5.40;4.10;;;11.70;99.90;;;;;;5032353;28;20206;-77
2023/05/31 01:40:54;;;;;;;6.13;3.87;;;11.60;99.90;;;;;;5031817;28;20224;-78
2023/05/31 01:43:22;;;;;;;6.10;4.30;;;11.60;99.90;;;;;;5031481;28;20202;-77
2023/05/31 01:45:51;;;;;;;8.70;4.10;;;11.60;99.90;;;;;;5032261;28;20560;-78
2023/05/31 01:48:18;;;;;;;7.30;4.10;;;11.60;99.90;;;;;;5032202;28;20206;-77
2023/05/31 01:50:46;;;;;;;5.23;3.83;;;11.60;99.90;;;;;;5031757;28;20638;-77
2023/05/31 01:53:13;;;;;;;6.70;4.33;;;11.60;99.90;;;;;;5032353;28;20198;-77
2023/05/31 01:55:42;;;;;;;7.87;4.60;;;11.50;99.90;;;;;;5032057;28;20220;-78
2023/05/31 01:58:11;;;;;;;5.47;4.53;;;11.50;99.90;;;;;;5031657;28;20202;-77
2023/05/31 02:00:38;;;;;;;6.70;4.13;;;11.40;99.90;;;;;;5032248;28;20210;-79
2023/05/31 02:03:06;;;;;;;6.87;4.20;;;11.50;99.90;;;;;;5031484;28;20285;-77
2023/05/31 02:05:33;;;;;;;7.70;4.73;;;11.50;99.90;;;;;;5032195;28;20236;-76
2023/05/31 02:08:00;;;;;;;5.30;4.43;;;11.50;99.90;;;;;;5031383;28;20210;-77
2023/05/31 02:10:27;;;;;;;8.03;4.50;;;11.40;99.90;;;;;;5031552;28;20202;-79
2023/05/31 02:12:54;;;;;;;6.40;4.83;;;11.40;99.90;;;;;;5031797;28;20238;-78
2023/05/31 02:15:23;;;;;;;6.67;4.43;;;11.40;99.90;;;;;;5032247;28;20222;-78
2023/05/31 02:17:51;;;;;;;6.93;4.30;;;11.30;99.90;;;;;;5035208;28;20248;-77
2023/05/31 02:20:19;;;;;;;8.63;3.90;;;11.30;99.90;;;;;;5035560;28;20198;-76
2023/05/31 02:22:47;;;;;;;7.20;4.30;;;11.30;99.90;;;;;;5036141;28;20268;-77
2023/05/31 02:25:15;;;;;;;6.77;4.70;;;11.20;99.90;;;;;;5034981;28;20203;-77
2023/05/31 02:27:42;;;;;;;4.37;3.77;;;11.20;99.90;;;;;;5035680;28;20206;-77
2023/05/31 02:30:11;;;;;;;8.13;4.20;;;11.20;99.90;;;;;;5035300;28;20756;-78
2023/05/31 02:32:38;;;;;;;5.23;4.10;;;11.30;99.90;;;;;;5034757;28;20687;-78
2023/05/31 02:35:06;;;;;;;8.80;4.60;;;11.30;99.90;;;;;;5035293;28;20218;-78
2023/05/31 02:37:35;;;;;;;7.07;4.27;;;11.30;99.90;;;;;;5035690;28;20222;-77
2023/05/31 02:40:06;;;;;;;7.40;4.10;;;11.30;99.90;;;;;;5034333;28;20199;-78
2023/05/31 02:42:32;;;;;;;5.67;4.23;;;11.30;99.90;;;;;;5035220;28;20201;-78
2023/05/31 02:45:00;;;;;;;7.37;4.60;;;11.30;99.90;;;;;;5035402;28;20205;-77
2023/05/31 02:47:27;;;;;;;7.40;4.80;;;11.30;99.90;;;;;;5034837;28;20242;-77
2023/05/31 02:49:53;;;;;;;8.63;5.00;;;11.40;99.90;;;;;;5035454;28;20289;-80
2023/05/31 02:52:20;;;;;;;6.37;4.37;;;11.40;99.90;;;;;;5034174;28;20633;-77
2023/05/31 02:54:49;;;;;;;7.73;4.50;;;11.40;99.90;;;;;;5035070;28;20250;-79
2023/05/31 02:57:15;;;;;;;6.37;4.73;;;11.40;99.90;;;;;;5035255;28;20286;-77
2023/05/31 02:59:44;;;;;;;6.50;4.53;;;11.40;99.90;;;;;;5033977;28;20662;-77
2023/05/31 03:02:11;;;;;;;10.63;5.17;;;11.30;99.90;;;;;;5034994;28;20278;-77
2023/05/31 03:04:38;;;;;;;6.37;4.63;;;11.30;99.90;;;;;;5035064;28;20288;-78
2023/05/31 03:07:05;;;;;;;7.57;4.40;;;11.20;99.90;;;;;;5034027;28;20218;-78
2023/05/31 03:09:32;;;;;;;5.83;4.40;;;11.20;99.90;;;;;;5034909;28;20222;-77
2023/05/31 03:12:00;;;;;;;6.83;4.90;;;11.10;99.90;;;;;;5034146;28;20226;-76
2023/05/31 03:14:27;;;;;;;6.80;4.83;;;11.10;99.90;;;;;;5033697;28;20389;-77
2023/05/31 03:16:55;;;;;;;8.20;4.80;;;11.00;99.90;;;;;;5034546;28;20285;-79
2023/05/31 03:19:22;;;;;;;9.13;4.67;;;11.00;99.90;;;;;;5034679;28;20195;-80
2023/05/31 03:21:49;;;;;;;7.07;4.60;;;11.00;99.90;;;;;;5016422;28;20206;-77
2023/05/31 03:24:15;;;;;;;8.30;5.30;;;10.90;99.90;;;;;;5034571;28;20210;-76
2023/05/31 03:26:42;;;;;;;7.23;4.80;;;10.90;99.90;;;;;;5041035;28;20202;-80
2023/05/31 03:29:11;;;;;;;8.40;5.20;;;10.90;99.90;;;;;;5053069;28;20285;-76
2023/05/31 03:31:37;;;;;;;6.70;4.90;;;10.90;99.90;;;;;;5047159;28;20298;-77
2023/05/31 03:34:04;;;;;;;7.87;4.57;;;10.90;99.90;;;;;;5034228;28;20206;-77
2023/05/31 03:36:31;;;;;;;5.67;4.67;;;10.80;99.90;;;;;;5048097;28;20217;-77
2023/05/31 03:38:58;;;;;;;8.70;5.13;;;10.70;99.90;;;;;;5048256;28;20205;-78
2023/05/31 03:41:25;;;;;;;8.70;4.53;;;10.70;99.90;;;;;;5033472;28;20867;-77
2023/05/31 03:43:52;;;;;;;8.20;4.77;;;10.70;99.90;;;;;;5034374;28;20674;-77
2023/05/31 03:46:21;;;;;;;8.17;4.53;;;10.70;99.90;;;;;;5034086;28;20206;-77
2023/05/31 03:48:48;;;;;;;6.97;5.00;;;10.70;99.90;;;;;;5033394;28;20214;-76
2023/05/31 03:51:14;;;;;;;8.90;4.97;;;10.70;99.90;;;;;;5033932;28;20293;-75
2023/05/31 03:53:41;;;;;;;6.30;4.93;;;10.70;99.90;;;;;;5034062;28;20228;-77
2023/05/31 03:56:08;;;;;;;9.03;5.07;;;10.70;99.90;;;;;;5033130;28;20246;-76
2023/05/31 03:58:35;;;;;;;5.87;4.80;;;10.70;99.90;;;;;;5034045;28;20201;-77
2023/05/31 04:01:02;;;;;;;8.53;4.90;;;10.70;99.90;;;;;;5033937;28;20206;-77
2023/05/31 04:03:30;;;;;;;7.37;4.87;;;10.60;99.90;;;;;;5033099;28;20202;-76
2023/05/31 04:05:57;;;;;;;8.80;4.50;;;10.60;99.90;;;;;;5034030;28;20284;-77
2023/05/31 04:08:24;;;;;;;5.83;4.53;;;10.60;99.90;;;;;;5034072;28;20293;-78
2023/05/31 04:10:51;;;;;;;7.30;4.60;;;10.60;99.90;;;;;;5032576;28;20202;-77
2023/05/31 04:13:18;;;;;;;6.30;5.20;;;10.60;99.90;;;;;;5033043;28;20202;-76
2023/05/31 04:15:45;;;;;;;8.83;5.43;;;10.70;99.90;;;;;;5033459;28;20215;-79
2023/05/31 04:18:11;;;;;;;7.97;5.20;;;10.70;99.90;;;;;;5032229;28;20289;-76
2023/05/31 04:20:40;;;;;;;9.93;5.87;;;10.70;99.90;;;;;;5033524;28;20198;-78
2023/05/31 04:23:07;;;;;;;7.73;5.40;;;10.70;99.90;;;;;;5033626;28;20218;-77
2023/05/31 04:25:33;;;;;;;6.67;5.10;;;10.70;99.90;;;;;;5032387;28;20198;-78
2023/05/31 04:28:01;;;;;;;7.03;5.40;;;10.80;99.90;;;;;;5033359;28;20199;-78
2023/05/31 04:30:28;;;;;;;8.43;4.93;;;10.80;99.90;;;;;;5032707;28;20214;-77
2023/05/31 04:32:57;;;;;;;6.80;5.10;;;10.80;99.90;;;;;;5052032;28;20245;-78
2023/05/31 04:35:28;;;;;;;6.40;4.83;;;10.90;99.90;;;;;;5052437;28;20222;-79
2023/05/31 04:37:59;;;;;;;7.47;5.03;;;10.90;99.90;;;;;;5045441;28;20618;-79
2023/05/31 04:40:26;;;;;;;9.33;5.23;;;10.90;99.90;;;;;;5032191;28;20740;-78
2023/05/31 04:42:53;;;;;;;6.03;5.03;;;10.90;99.90;;;;;;5032554;28;20206;-79
2023/05/31 04:45:20;;;;;;;8.47;5.90;;;11.00;99.90;;;;;;5032378;28;20245;-77
2023/05/31 04:47:49;;;;;;;9.27;5.47;;;11.00;99.90;;;;;;5033315;28;20281;-79
2023/05/31 04:50:16;;;;;;;8.63;6.23;;;11.10;99.90;;;;;;5032690;28;20199;-78
2023/05/31 04:52:44;;;;;;;12.13;6.13;;;11.10;99.90;;;;;;5032208;28;20584;-77
2023/05/31 04:55:12;;;;;;;8.53;5.63;;;11.20;99.90;;;;;;5033103;28;20209;-77
2023/05/31 04:57:39;;;;;;;10.17;5.73;;;11.30;99.90;;;;;;5032451;28;20657;-79
2023/05/31 05:00:10;;;;;;;8.30;5.70;;;11.40;99.90;;;;;;5031672;28;20206;-77
2023/05/31 05:02:36;;;;;;;9.83;5.70;;;11.50;99.90;;;;;;5032547;28;20642;-78
2023/05/31 05:05:06;;;;;;;11.20;5.83;;;11.70;99.90;;;;;;5032676;28;20347;-78
2023/05/31 05:07:34;;;;;;;8.70;6.00;;;11.90;99.90;;;;;;5031898;28;20194;-78
2023/05/31 05:10:05;;;;;;;7.23;5.73;;;12.20;99.90;;;;;;5032346;28;20207;-77
2023/05/31 05:12:33;;;;;;;8.07;5.30;;;12.60;99.90;;;;;;5032419;28;20236;-78
2023/05/31 05:15:00;;;;;;;9.13;5.20;;;12.90;99.90;;;;;;5032031;28;20281;-77
2023/05/31 05:17:27;;;;;;;8.13;5.30;;;13.10;99.90;;;;;;5032776;28;20341;-77
2023/05/31 05:19:54;;;;;;;9.37;5.90;;;13.40;99.90;;;;;;5031866;28;20206;-78
2023/05/31 05:22:21;;;;;;;7.17;5.50;;;13.70;99.90;;;;;;5032352;28;20293;-78
2023/05/31 05:24:48;;;;;;;8.20;5.13;;;13.90;99.90;;;;;;5033133;28;20202;-78
2023/05/31 05:27:15;;;;;;;8.57;5.17;;;14.10;99.90;;;;;;5039122;28;20286;-79
2023/05/31 05:29:43;;;;;;;7.03;5.13;;;14.30;99.90;;;;;;5032381;28;20614;-81
2023/05/31 05:32:10;;;;;;;6.97;4.43;;;14.50;99.90;;;;;;5032423;28;20205;-78
2023/05/31 05:34:37;;;;;;;6.77;5.20;;;14.60;99.90;;;;;;5031630;28;20533;-78
2023/05/31 05:37:05;;;;;;;8.10;4.80;;;14.70;99.90;;;;;;5032236;28;20238;-78
2023/05/31 05:39:32;;;;;;;6.87;4.47;;;14.90;99.90;;;;;;5032638;28;20222;-78
2023/05/31 05:41:59;;;;;;;8.20;5.07;;;15.10;99.90;;;;;;5031538;28;20297;-78
2023/05/31 05:44:25;;;;;;;6.53;4.53;;;15.20;99.90;;;;;;5031819;28;20653;-78
2023/05/31 05:46:54;;;;;;;7.20;4.70;;;15.40;99.90;;;;;;5031984;28;20226;-78
2023/05/31 05:49:20;;;;;;;6.60;4.53;;;15.50;99.90;;;;;;5031415;28;20190;-79
2023/05/31 05:51:47;;;;;;;6.40;4.20;;;15.60;99.90;;;;;;5034364;28;20301;-79
2023/05/31 05:54:14;;;;;;;7.50;4.47;;;15.80;99.90;;;;;;5036170;28;20207;-79
2023/05/31 05:56:41;;;;;;;8.33;4.93;;;15.80;99.90;;;;;;5035621;28;20215;-78
2023/05/31 05:59:08;;;;;;;7.40;4.90;;;15.80;99.90;;;;;;5036065;28;20206;-78
2023/05/31 06:01:35;;;;;;;8.95;4.90;;;15.90;99.90;;;;;;5054784;28;20653;-79
2023/05/31 06:04:03;;;;;;;7.50;5.25;;;16.10;99.90;;;;;;5055439;28;20516;-78
2023/05/31 06:06:31;;;;;;;7.72;4.90;;;16.00;99.90;;;;;;5041888;28;20309;-76
2023/05/31 06:08:58;;;;;;;7.07;5.10;;;16.00;99.90;;;;;;5036043;28;20252;-79
2023/05/31 06:11:25;;;;;;;8.02;5.00;;;16.20;99.90;;;;;;5035482;28;20229;-78
2023/05/31 06:13:56;;;;;;;8.65;5.60;;;16.40;99.90;;;;;;5035969;28;20662;-77
2023/05/31 06:16:23;;;;;;;9.57;5.05;;;16.50;99.90;;;;;;5055400;28;20547;-79
2023/05/31 06:18:51;;;;;;;8.05;5.00;;;16.50;99.90;;;;;;5055875;28;20194;-78
2023/05/31 06:21:19;;;;;;;9.20;5.82;;;16.30;99.90;;;;;;5055969;28;20204;-77
2023/05/31 06:23:46;;;;;;;8.35;5.95;;;16.40;99.90;;;;;;5044896;28;20206;-78
2023/05/31 06:26:13;;;;;;;6.75;5.07;;;16.60;99.90;;;;;;5038736;28;20290;-78
2023/05/31 06:28:40;;;;;;;10.02;6.18;;;16.70;99.90;;;;;;5055908;28;20214;-80
2023/05/31 06:31:08;;;;;;;8.82;5.38;;;16.80;99.90;;;;;;5054758;28;20224;-78
2023/05/31 06:33:35;;;;;;;11.35;6.90;;;16.70;99.90;;;;;;5044069;28;20286;-81
2023/05/31 06:36:02;;;;;;;7.75;5.45;;;16.80;99.90;;;;;;5035769;28;20222;-80
2023/05/31 06:38:30;;;;;;;7.22;5.43;;;17.00;99.90;;;;;;5035243;28;20505;-82
2023/05/31 06:40:57;;;;;;;6.38;5.05;;;17.10;99.90;;;;;;5047593;28;20202;-81
2023/05/31 06:43:24;;;;;;;7.97;5.78;;;17.20;99.90;;;;;;5054836;28;20244;-80
2023/05/31 06:45:51;;;;;;;7.82;6.30;;;17.10;99.90;;;;;;5054267;28;20210;-78
2023/05/31 06:48:18;;;;;;;10.98;5.60;;;16.90;99.90;;;;;;5042784;28;20289;-79
2023/05/31 06:50:45;;;;;;;7.63;6.35;;;17.10;99.90;;;;;;5034939;28;20206;-80
2023/05/31 06:53:13;;;;;;;11.02;6.75;;;17.30;99.90;;;;;;5049003;28;20198;-80
2023/05/31 06:55:41;;;;;;;8.85;6.30;;;17.40;99.90;;;;;;5034792;28;20606;-79
2023/05/31 06:58:08;;;;;;;9.48;6.78;;;17.50;99.90;;;;;;5050139;28;20209;-80
2023/05/31 07:00:36;;;;;;;8.73;7.03;;;17.50;99.90;;;;;;5048194;28;20194;-82
2023/05/31 07:03:03;;;;;;;9.70;6.88;;;17.70;99.90;;;;;;5053326;28;20288;-81
2023/05/31 07:05:31;;;;;;;8.93;6.90;;;18.00;99.90;;;;;;5050302;28;20305;-81
2023/05/31 07:07:58;;;;;;;8.35;6.38;;;18.20;99.90;;;;;;5048112;28;20190;-82
2023/05/31 07:10:27;;;;;;;10.20;6.95;;;18.40;99.90;;;;;;5053725;28;20335;-81
2023/05/31 07:12:55;;;;;;;8.80;6.75;;;18.80;99.90;;;;;;5053800;28;20225;-82
2023/05/31 07:15:22;;;;;;;9.45;6.50;;;19.10;99.90;;;;;;5054584;28;20201;-79
2023/05/31 07:17:49;;;;;;;11.13;6.45;;;19.00;99.90;;;;;;5052724;28;20226;-78
2023/05/31 07:20:16;;;;;;;7.40;6.55;;;19.00;99.90;;;;;;5054375;28;20198;-80
2023/05/31 07:22:42;;;;;;;9.00;6.40;;;19.10;99.90;;;;;;5054182;28;20229;-80
2023/05/31 07:25:10;;;;;;;9.43;7.10;;;19.00;99.90;;;;;;5037937;28;20313;-81
2023/05/31 07:27:37;;;;;;;9.50;7.63;;;19.20;99.90;;;;;;5050106;28;20297;-81
2023/05/31 07:30:07;;;;;;;10.90;6.78;;;19.10;99.90;;;;;;5035758;28;20206;-80
2023/05/31 07:32:34;;;;;;;10.25;7.25;;;19.30;99.90;;;;;;5044583;28;20220;-80
2023/05/31 07:35:01;;;;;;;8.95;7.20;;;19.50;99.90;;;;;;5054217;28;20206;-82
2023/05/31 07:37:28;;;;;;;8.65;6.88;;;19.50;99.90;;;;;;5054030;28;20210;-83
2023/05/31 07:39:55;;;;;;;9.02;6.70;;;19.60;99.90;;;;;;5052972;28;20202;-81
2023/05/31 07:42:21;;;;;;;9.15;7.05;;;19.60;99.90;;;;;;5044018;28;20734;-80
2023/05/31 07:44:49;;;;;;;9.82;7.00;;;19.80;99.90;;;;;;5033778;28;20226;-84
2023/05/31 07:47:19;;;;;;;7.72;6.65;;;19.80;99.90;;;;;;5033411;28;20234;-84
2023/05/31 07:49:46;;;;;;;9.65;6.72;;;20.00;99.90;;;;;;5033078;28;20253;-80
2023/05/31 07:52:13;;;;;;;10.73;7.22;;;20.00;99.90;;;;;;5033456;28;20521;-84
2023/05/31 07:54:39;;;;;;;9.60;7.35;;;20.20;99.90;;;;;;5033050;28;20310;-80
2023/05/31 07:57:07;;;;;;;9.88;6.97;;;20.10;99.90;;;;;;5041727;28;20220;-79
2023/05/31 07:59:34;;;;;;;9.60;7.28;;;20.30;99.90;;;;;;5050869;28;20201;-79
2023/05/31 08:02:00;;;;;;;9.90;6.90;;;20.40;99.90;;;;;;5051331;28;20201;-80
2023/05/31 08:04:29;;;;;;;8.50;6.50;;;20.70;99.90;;;;;;5052721;28;20367;-81
2023/05/31 08:06:56;;;;;;;11.88;7.40;;;20.90;99.90;;;;;;5052364;28;20229;-80
2023/05/31 08:09:23;;;;;;;12.30;7.60;;;20.80;99.90;;;;;;5050963;28;20212;-79
2023/05/31 08:11:49;;;;;;;10.68;7.60;;;21.00;99.90;;;;;;5050809;28;20277;-80
2023/05/31 08:14:16;;;;;;;12.60;7.93;;;20.90;99.90;;;;;;5051832;28;20202;-82
2023/05/31 08:16:44;;;;;;;10.20;7.15;;;20.80;99.90;;;;;;5051701;28;20214;-80
2023/05/31 08:19:12;;;;;;;8.63;7.20;;;20.70;99.90;;;;;;5052269;28;20632;-80
2023/05/31 08:21:40;;;;;;;10.98;7.65;;;20.80;99.90;;;;;;5034974;28;20215;-80
2023/05/31 08:24:07;;;;;;;10.65;7.68;;;21.00;99.90;;;;;;5032272;28;20349;-80
2023/05/31 08:26:34;;;;;;;10.25;7.80;;;21.30;99.90;;;;;;5032591;28;20285;-80
2023/05/31 08:29:01;;;;;;;10.73;7.82;;;21.10;99.90;;;;;;5033193;28;20230;-82
2023/05/31 08:31:28;;;;;;;12.23;8.10;;;21.30;99.90;;;;;;5032340;28;20260;-79
2023/05/31 08:33:56;;;;;;;9.63;7.95;;;21.30;99.90;;;;;;5033109;28;20281;-79
2023/05/31 08:36:23;;;;;;;11.07;8.02;;;21.30;99.90;;;;;;5032983;28;20203;-78
2023/05/31 08:38:52;;;;;;;8.48;7.15;;;21.60;99.90;;;;;;5032639;28;20214;-79
2023/05/31 08:41:20;;;;;;;12.13;7.95;;;21.80;99.90;;;;;;5032930;28;20288;-80
2023/05/31 08:43:47;;;;;;;8.35;6.85;;;21.80;99.90;;;;;;5032815;28;20198;-78
2023/05/31 08:46:16;;;;;;;10.02;7.20;;;22.00;99.90;;;;;;5033418;28;20205;-78
2023/05/31 08:48:46;;;;;;;8.85;7.68;;;21.70;99.90;;;;;;5032614;28;20203;-81
2023/05/31 08:51:14;;;;;;;13.98;7.93;;;21.80;99.90;;;;;;5032598;28;20218;-78
2023/05/31 08:53:42;;;;;;;9.43;7.43;;;21.80;99.90;;;;;;5032856;28;20202;-78
2023/05/31 08:56:12;;;;;;;8.15;7.32;;;21.90;99.90;;;;;;5038483;28;20257;-81
2023/05/31 08:58:41;;;;;;;12.45;7.20;;;21.70;99.90;;;;;;5052054;28;20248;-80
2023/05/31 09:01:08;;;;;;;8.70;7.18;;;21.80;99.90;;;;;;5036185;28;20704;-81
2023/05/31 09:03:36;;;;;;;10.20;7.38;;;21.80;99.90;;;;;;5032969;28;20246;-80
2023/05/31 09:06:03;;;;;;;11.73;8.35;;;21.90;99.90;;;;;;5032238;28;20226;-81
2023/05/31 09:08:33;;;;;;;7.90;6.82;;;22.10;99.90;;;;;;5043623;28;20297;-80
2023/05/31 09:11:01;;;;;;;7.70;6.90;;;22.30;99.90;;;;;;5049252;28;20221;-79
2023/05/31 09:13:29;;;;;;;9.10;5.82;;;22.50;99.90;;;;;;5032021;28;20598;-79
2023/05/31 09:15:58;;;;;;;9.15;6.75;;;22.70;99.90;;;;;;5032783;28;20309;-82
2023/05/31 09:18:29;;;;;;;9.40;7.07;;;22.90;99.90;;;;;;5032287;28;20268;-79
2023/05/31 09:20:57;;;;;;;9.68;6.18;;;22.70;99.90;;;;;;5031958;28;20583;-80
2023/05/31 09:23:24;;;;;;;14.23;8.45;;;22.70;99.90;;;;;;5032626;28;20210;-78
2023/05/31 09:25:53;;;;;;;8.95;7.28;;;22.60;99.90;;;;;;5031759;28;20207;-79
2023/05/31 09:28:21;;;;;;;10.82;7.85;;;22.40;99.90;;;;;;5031280;28;20217;-81
2023/05/31 09:31:02;;;;;;;9.80;7.88;;;22.30;99.90;;;;;;5032302;28;20228;-79
2023/05/31 09:33:38;;;;;;;7.95;6.97;;;22.30;99.90;;;;;;5031724;28;20297;-78
2023/05/31 09:36:05;;;;;;;8.38;6.95;;;22.50;99.90;;;;;;5032493;28;20202;-80
2023/05/31 09:38:33;;;;;;;8.73;6.75;;;22.60;99.90;;;;;;5031720;28;20224;-80
2023/05/31 09:41:13;;;;;;;7.60;6.80;;;22.80;99.90;;;;;;5031927;28;20210;-80
2023/05/31 09:43:40;;;;;;;10.50;6.85;;;22.80;99.90;;;;;;5032253;28;20579;-79
2023/05/31 09:46:13;;;;;;;9.60;7.05;;;22.70;99.90;;;;;;5032238;28;20526;-78
2023/05/31 09:48:40;;;;;;;11.18;7.70;;;22.80;99.90;;;;;;5031571;28;20706;-78
2023/05/31 09:51:08;;;;;;;13.13;8.05;;;22.70;99.90;;;;;;5032192;28;20238;-81
2023/05/31 09:53:41;;;;;;;11.52;7.38;;;22.60;99.90;;;;;;5032342;28;20237;-79
2023/05/31 09:56:12;;;;;;;10.48;7.47;;;22.80;99.90;;;;;;5030975;28;20500;-80
2023/05/31 09:58:39;;;;;;;9.25;6.82;;;22.70;99.90;;;;;;5032115;28;20224;-79
2023/05/31 10:01:07;;;;;;;10.50;6.97;;;23.00;99.90;;;;;;5031836;28;20614;-78
2023/05/31 10:03:36;;;;;;;8.90;6.85;;;22.80;99.90;;;;;;5037685;28;20201;-79
2023/05/31 10:06:04;;;;;;;12.52;6.90;;;22.80;99.90;;;;;;5038263;28;20315;-80
2023/05/31 10:08:32;;;;;;;9.45;6.55;;;22.70;99.90;;;;;;5030969;28;20195;-80
2023/05/31 10:11:00;;;;;;;10.55;7.47;;;22.70;99.90;;;;;;5033216;28;20191;-79
2023/05/31 10:13:29;;;;;;;9.05;7.20;;;22.70;99.90;;;;;;5032029;28;20241;-81
2023/05/31 10:15:57;;;;;;;9.70;6.90;;;22.80;99.90;;;;;;5031302;28;20202;-79
2023/05/31 10:18:29;;;;;;;8.35;6.45;;;23.00;99.90;;;;;;5031318;28;20258;-80
2023/05/31 10:21:04;;;;;;;8.32;6.38;;;23.10;99.90;;;;;;5031454;28;20208;-79
2023/05/31 10:23:34;;;;;;;10.13;7.20;;;23.10;99.90;;;;;;5030937;28;20285;-82
2023/05/31 10:26:13;;;;;;;9.02;6.65;;;23.10;99.90;;;;;;5031157;28;20198;-80
2023/05/31 10:28:48;;;;;;;8.77;7.07;;;23.00;99.90;;;;;;5419550;23;20316;-81
2023/05/31 10:31:16;;;;;;;8.27;6.53;;;23.30;99.90;;;;;;5050389;28;20594;-81
2023/05/31 10:33:48;;;;;;;9.40;7.18;;;23.40;99.90;;;;;;5050762;28;20285;-81
2023/05/31 10:36:18;;;;;;;11.68;7.53;;;23.50;99.90;;;;;;5037925;28;20198;-80
2023/05/31 10:38:53;;;;;;;11.10;7.45;;;23.70;99.90;;;;;;5033902;28;20245;-80
2023/05/31 10:41:24;;;;;;;8.93;7.25;;;23.20;99.90;;;;;;5033908;28;20218;-81
2023/05/31 10:43:58;;;;;;;10.98;7.65;;;23.40;99.90;;;;;;5033899;28;20788;-80
2023/05/31 10:46:27;;;;;;;10.63;7.45;;;23.40;99.90;;;;;;5034286;28;20202;-81
2023/05/31 10:48:57;;;;;;;11.07;7.05;;;23.30;99.90;;;;;;5034574;28;20198;-80
2023/05/31 10:54:30;;;;;;;10.80;6.88;;;23.40;99.90;;;;;;5109465;27;20536;-78
2023/05/31 10:56:57;;;;;;;11.77;8.27;;;23.20;99.90;;;;;;5104934;28;20204;-79
2023/05/31 10:59:25;;;;;;;11.48;8.57;;;23.00;99.90;;;;;;5088763;28;20196;-80
2023/05/31 11:01:52;;;;;;;9.05;6.85;;;23.10;99.90;;;;;;5089216;28;20200;-77
2023/05/31 11:04:21;;;;;;;9.23;7.20;;;23.30;99.90;;;;;;5089944;28;20242;-80
2023/05/31 11:06:52;;;;;;;9.15;7.63;;;23.60;99.90;;;;;;5089542;28;20541;-77
2023/05/31 11:09:21;;;;;;;11.88;7.25;;;23.60;99.90;;;;;;5090719;28;20251;-79
2023/05/31 11:11:49;;;;;;;7.82;6.95;;;23.70;99.90;;;;;;5089017;28;20216;-78
2023/05/31 11:14:31;;;;;;;9.93;6.75;;;23.70;99.90;;;;;;5089288;28;20217;-80
2023/05/31 11:17:15;;;;;;;11.07;6.85;;;23.60;99.90;;;;;;5089260;28;20596;-80
2023/05/31 11:19:44;;;;;;;11.45;7.47;;;23.80;99.90;;;;;;5089147;28;20284;-79
2023/05/31 11:22:14;;;;;;;9.23;7.53;;;23.70;99.90;;;;;;5089213;28;20193;-79
2023/05/31 11:24:51;;;;;;;7.88;6.82;;;23.60;99.90;;;;;;5089891;28;20222;-80
2023/05/31 11:27:19;;;;;;;9.48;6.55;;;23.80;99.90;;;;;;5088633;28;20185;-78
2023/05/31 11:29:59;;;;;;;8.63;6.20;;;23.70;99.90;;;;;;5088982;28;20212;-81
2023/05/31 11:32:58;;;;;;;9.70;6.75;;;23.90;99.90;;;;;;5089249;28;20224;-78
2023/05/31 11:35:26;;;;;;;11.35;7.63;;;23.70;99.90;;;;;;5089211;28;20209;-78
2023/05/31 11:38:02;;;;;;;8.25;7.25;;;23.70;99.90;;;;;;5088870;28;20750;-78
2023/05/31 11:40:31;;;;;;;10.38;6.45;;;23.50;99.90;;;;;;5088290;28;20489;-78
2023/05/31 11:43:05;;;;;;;8.88;6.00;;;23.60;99.90;;;;;;5089061;28;20216;-80
2023/05/31 11:45:33;;;;;;;9.50;6.60;;;23.70;99.90;;;;;;5089129;28;20656;-81
2023/05/31 11:48:13;;;;;;;11.65;6.68;;;23.80;99.90;;;;;;5088108;28;20208;-79
2023/05/31 11:50:42;;;;;;;8.85;6.28;;;23.60;99.90;;;;;;5089002;28;20275;-77
2023/05/31 11:53:11;;;;;;;10.02;7.35;;;23.60;99.90;;;;;;5088256;28;21614;-79
2023/05/31 11:55:41;;;;;;;8.45;6.22;;;23.60;99.90;;;;;;5088469;28;20197;-82
2023/05/31 11:58:07;;;;;;;11.13;6.05;;;23.70;99.90;;;;;;5088339;28;20593;-79
2023/05/31 12:00:34;;;;;;;9.15;6.75;;;23.80;99.90;;;;;;5088873;28;20203;-78
2023/05/31 12:03:05;;;;;;;9.65;6.32;;;23.80;99.90;;;;;;5087663;28;20197;-78
2023/05/31 12:05:32;;;;;;;9.90;6.30;;;24.10;99.90;;;;;;5075505;28;20285;-78
2023/05/31 12:07:59;;;;;;;8.98;6.35;;;24.40;99.90;;;;;;5074086;28;20197;-80
2023/05/31 12:10:27;;;;;;;8.75;5.93;;;24.50;99.90;;;;;;5075026;28;20203;-80
2023/05/31 12:12:55;;;;;;;8.60;5.82;;;24.30;99.90;;;;;;5074797;28;20221;-79
2023/05/31 12:15:22;;;;;;;6.88;5.63;;;24.30;99.90;;;;;;5074898;28;20284;-80
2023/05/31 12:17:49;;;;;;;9.70;5.85;;;24.10;99.90;;;;;;5074661;28;20201;-81
2023/05/31 12:20:16;;;;;;;8.63;5.68;;;23.90;99.90;;;;;;5084247;28;20603;-78
2023/05/31 12:22:43;;;;;;;6.72;5.18;;;24.00;99.90;;;;;;5094837;28;20189;-80
2023/05/31 12:25:11;;;;;;;7.95;5.38;;;24.10;99.90;;;;;;5077674;28;20215;-80
2023/05/31 12:27:38;;;;;;;6.15;4.75;;;24.10;99.90;;;;;;5074664;28;20703;-78
2023/05/31 12:30:08;;;;;;;8.23;5.53;;;24.20;99.90;;;;;;5074436;28;20602;-79
2023/05/31 12:32:35;;;;;;;8.50;5.00;;;24.30;99.90;;;;;;5074430;28;20203;-79
2023/05/31 12:35:08;;;;;;;12.70;5.75;;;24.20;99.90;;;;;;5075279;28;20509;-80
2023/05/31 12:37:36;;;;;;;9.40;5.72;;;24.20;99.90;;;;;;5094173;28;20291;-78
2023/05/31 12:40:10;;;;;;;9.38;5.15;;;23.90;99.90;;;;;;5094724;28;20197;-79
2023/05/31 12:42:37;;;;;;;10.15;6.32;;;23.70;99.90;;;;;;5082798;28;20278;-81
2023/05/31 12:45:06;;;;;;;10.27;5.97;;;23.50;99.90;;;;;;5073922;28;20284;-80
2023/05/31 12:47:34;;;;;;;11.85;6.03;;;23.60;99.90;;;;;;5074674;28;20220;-82
2023/05/31 12:50:05;;;;;;;8.82;5.90;;;23.70;99.90;;;;;;5074010;28;20195;-79
2023/05/31 12:52:33;;;;;;;11.30;6.38;;;23.70;99.90;;;;;;5074717;28;20240;-78
2023/05/31 12:55:01;;;;;;;9.32;6.22;;;23.60;99.90;;;;;;5074371;28;20618;-77